Time;durP1;ratioP1;P1;durP2;ratioP2;P2;SDS_P1;SDS_P2;PMS_P1;PMS_P2;Temp;Humidity;BMP_temperature;BMP_pressure;BME280_temperature;BME280_humidity;BME280_pressure;Samples;Min_cycle;Max_cycle;Signal;HPM_P1;HPM_P2
2020/12/13 00:00:30;;;;;;;15.10;8.47;;;3.40;99.90;;;;;;5029527;28;20199;-56
2020/12/13 00:02:56;;;;;;;14.90;9.03;;;3.40;99.90;;;;;;5026839;28;20433;-56
2020/12/13 00:05:22;;;;;;;15.20;9.53;;;3.40;99.90;;;;;;5028264;28;20437;-54
2020/12/13 00:07:50;;;;;;;12.10;7.80;;;3.50;99.90;;;;;;5028752;28;20466;-54
2020/12/13 00:10:20;;;;;;;12.63;8.00;;;3.50;99.90;;;;;;5027400;28;20521;-56
2020/12/13 00:12:45;;;;;;;14.37;8.17;;;3.50;99.90;;;;;;5026628;28;21003;-56
2020/12/13 00:15:11;;;;;;;11.83;7.30;;;3.50;99.90;;;;;;5029901;28;20533;-55
2020/12/13 00:17:37;;;;;;;6.40;4.50;;;3.50;99.90;;;;;;5024371;28;20209;-54
2020/12/13 00:20:04;;;;;;;5.33;3.50;;;3.50;99.90;;;;;;5029074;28;20294;-54
2020/12/13 00:22:30;;;;;;;5.40;3.67;;;3.50;99.90;;;;;;5028087;28;20641;-55
2020/12/13 00:24:56;;;;;;;5.17;3.50;;;3.50;99.90;;;;;;5023585;28;20503;-56
2020/12/13 00:27:21;;;;;;;7.73;3.73;;;3.40;99.90;;;;;;5017154;28;20198;-56
2020/12/13 00:29:47;;;;;;;6.13;3.97;;;3.40;99.90;;;;;;5032008;28;20280;-56
2020/12/13 00:32:13;;;;;;;5.80;3.70;;;3.30;99.90;;;;;;5028110;28;20191;-55
2020/12/13 00:34:38;;;;;;;4.60;2.87;;;3.30;99.90;;;;;;5028404;28;20192;-55
2020/12/13 00:37:04;;;;;;;3.37;2.63;;;3.30;99.90;;;;;;5010054;28;20265;-56
2020/12/13 00:39:30;;;;;;;6.70;3.87;;;3.20;99.90;;;;;;5027527;28;20223;-56
2020/12/13 00:41:56;;;;;;;4.50;3.33;;;3.20;99.90;;;;;;5028770;28;20435;-55
2020/12/13 00:44:21;;;;;;;4.00;3.00;;;3.20;99.90;;;;;;5026651;28;20184;-54
2020/12/13 00:46:48;;;;;;;6.50;3.97;;;3.20;99.90;;;;;;5025932;28;20172;-55
2020/12/13 00:49:14;;;;;;;7.30;4.30;;;3.10;99.90;;;;;;5011780;28;20203;-55
2020/12/13 00:51:40;;;;;;;6.63;4.50;;;3.10;99.90;;;;;;5028132;28;20445;-56
2020/12/13 00:54:06;;;;;;;5.37;4.10;;;3.10;99.90;;;;;;5026563;28;21603;-55
2020/12/13 00:56:32;;;;;;;5.83;4.23;;;3.10;99.90;;;;;;5010210;28;20445;-54
2020/12/13 00:58:57;;;;;;;6.40;4.67;;;3.00;99.90;;;;;;5011777;28;21206;-55
2020/12/13 01:01:23;;;;;;;10.10;5.33;;;2.90;99.90;;;;;;5029212;28;20226;-55
2020/12/13 01:03:49;;;;;;;8.00;4.97;;;2.90;99.90;;;;;;5023601;28;20230;-55
2020/12/13 01:06:26;;;;;;;12.43;5.80;;;2.90;99.90;;;;;;5009843;28;20212;-56
2020/12/13 01:08:53;;;;;;;12.83;6.53;;;2.90;99.90;;;;;;5025695;28;20485;-55
2020/12/13 01:11:27;;;;;;;9.50;6.60;;;2.80;99.90;;;;;;5026874;28;20461;-55
2020/12/13 01:13:53;;;;;;;16.27;8.27;;;2.80;99.90;;;;;;5025062;28;20426;-55
2020/12/13 01:16:19;;;;;;;14.53;7.17;;;2.80;99.90;;;;;;5029421;28;20438;-56
2020/12/13 01:18:45;;;;;;;16.07;8.13;;;2.80;99.90;;;;;;5026432;28;20488;-56
2020/12/13 01:21:25;;;;;;;17.53;8.97;;;2.80;99.90;;;;;;5029269;28;20501;-55
2020/12/13 01:23:52;;;;;;;16.23;8.00;;;2.80;99.90;;;;;;5021820;28;20175;-55
2020/12/13 01:26:18;;;;;;;16.10;8.60;;;2.80;99.90;;;;;;5027398;28;20525;-55
2020/12/13 01:28:44;;;;;;;19.17;8.60;;;2.80;99.90;;;;;;5026531;28;20878;-55
2020/12/13 01:31:14;;;;;;;14.00;8.23;;;2.80;99.90;;;;;;5028832;28;20434;-56
2020/12/13 01:33:40;;;;;;;18.00;9.60;;;2.80;99.90;;;;;;5026299;28;20194;-56
2020/12/13 01:36:13;;;;;;;19.60;10.67;;;2.80;99.90;;;;;;5027929;28;20442;-55
2020/12/13 01:38:39;;;;;;;17.03;9.57;;;2.80;99.90;;;;;;5020371;28;20289;-55
2020/12/13 01:41:05;;;;;;;15.10;9.20;;;2.80;99.90;;;;;;5026257;28;20461;-57
2020/12/13 01:43:31;;;;;;;18.87;9.60;;;2.80;99.90;;;;;;5027131;28;20436;-56
2020/12/13 01:45:56;;;;;;;22.63;10.50;;;2.80;99.90;;;;;;5026256;28;20247;-55
2020/12/13 01:48:22;;;;;;;24.40;11.33;;;2.80;99.90;;;;;;5027160;28;20698;-55
2020/12/13 01:51:14;;;;;;;17.47;9.47;;;2.80;99.90;;;;;;5024881;28;20213;-55
2020/12/13 01:53:40;;;;;;;20.03;10.43;;;2.80;99.90;;;;;;5013865;28;21445;-56
2020/12/13 01:56:07;;;;;;;19.30;10.67;;;2.90;99.90;;;;;;5025292;28;20545;-55
2020/12/13 01:58:37;;;;;;;16.30;9.17;;;2.90;99.90;;;;;;5027319;28;20528;-55
2020/12/13 02:01:06;;;;;;;18.17;10.47;;;2.90;99.90;;;;;;5026151;28;20462;-56
2020/12/13 02:03:53;;;;;;;18.60;11.57;;;2.90;99.90;;;;;;5027064;28;20813;-56
2020/12/13 02:06:24;;;;;;;19.50;10.13;;;2.90;99.90;;;;;;5008758;28;20441;-54
2020/12/13 02:08:50;;;;;;;22.10;10.00;;;2.90;99.90;;;;;;5026089;28;20829;-54
2020/12/13 02:11:18;;;;;;;21.40;10.30;;;2.90;99.90;;;;;;5027167;28;20436;-55
2020/12/13 02:13:46;;;;;;;18.00;9.60;;;2.90;99.90;;;;;;5028172;28;20824;-56
2020/12/13 02:16:12;;;;;;;16.60;9.50;;;2.90;99.90;;;;;;5026825;28;20491;-56
2020/12/13 02:18:41;;;;;;;13.57;8.17;;;2.90;99.90;;;;;;5032901;28;20540;-56
2020/12/13 02:21:10;;;;;;;19.90;9.10;;;2.90;99.90;;;;;;5028988;28;20991;-54
2020/12/13 02:23:39;;;;;;;18.40;9.63;;;2.90;99.90;;;;;;5027796;28;20434;-54
2020/12/13 02:26:07;;;;;;;16.13;9.70;;;2.90;99.90;;;;;;5024487;28;20423;-55
2020/12/13 02:28:35;;;;;;;16.13;8.80;;;2.90;99.90;;;;;;5032193;28;21014;-54
2020/12/13 02:31:05;;;;;;;17.07;8.73;;;3.00;99.90;;;;;;5031843;28;20949;-55
2020/12/13 02:33:31;;;;;;;22.60;8.03;;;3.00;99.90;;;;;;5033838;28;20888;-55
2020/12/13 02:35:57;;;;;;;16.00;8.53;;;3.00;99.90;;;;;;5027233;28;20951;-54
2020/12/13 02:38:23;;;;;;;13.87;7.67;;;3.10;99.90;;;;;;5027511;28;20464;-56
2020/12/13 02:40:49;;;;;;;15.60;7.80;;;3.10;99.90;;;;;;5027050;28;20500;-55
2020/12/13 02:43:15;;;;;;;17.70;7.77;;;3.10;99.90;;;;;;5029473;28;20649;-56
2020/12/13 02:45:40;;;;;;;15.77;8.87;;;3.10;99.90;;;;;;5027164;28;20573;-56
2020/12/13 02:48:06;;;;;;;16.50;7.77;;;3.10;99.90;;;;;;5032201;28;20295;-56
2020/12/13 02:50:32;;;;;;;14.70;8.20;;;3.10;99.90;;;;;;5029845;28;20215;-58
2020/12/13 02:52:59;;;;;;;18.10;9.30;;;3.10;99.90;;;;;;5025450;28;20210;-55
2020/12/13 02:55:24;;;;;;;15.73;8.10;;;3.10;99.90;;;;;;5028176;28;20186;-55
2020/12/13 02:57:51;;;;;;;14.17;7.40;;;3.10;99.90;;;;;;5025517;28;20457;-56
2020/12/13 03:00:16;;;;;;;13.70;8.47;;;3.10;99.90;;;;;;5026175;28;20207;-55
2020/12/13 03:02:42;;;;;;;13.67;7.97;;;3.10;99.90;;;;;;5030207;28;20438;-54
2020/12/13 03:05:08;;;;;;;12.97;7.60;;;3.00;99.90;;;;;;5027715;28;20210;-55
2020/12/13 03:07:34;;;;;;;15.17;7.87;;;3.00;99.90;;;;;;5032667;28;20253;-55
2020/12/13 03:09:59;;;;;;;20.93;6.77;;;3.00;99.90;;;;;;5022144;28;20435;-55
2020/12/13 03:12:25;;;;;;;10.77;6.40;;;2.90;99.90;;;;;;5031723;28;20677;-57
2020/12/13 03:14:55;;;;;;;8.03;4.90;;;3.00;99.90;;;;;;5029651;28;20620;-57
2020/12/13 03:17:21;;;;;;;9.00;4.80;;;3.00;99.90;;;;;;5028595;28;20430;-56
2020/12/13 03:19:47;;;;;;;6.43;4.90;;;2.90;99.90;;;;;;5028182;28;20873;-56
2020/12/13 03:22:13;;;;;;;12.10;5.40;;;2.90;99.90;;;;;;5027412;28;20399;-55
2020/12/13 03:24:38;;;;;;;8.93;5.70;;;2.90;99.90;;;;;;5025321;28;20175;-55
2020/12/13 03:27:04;;;;;;;12.40;5.53;;;2.90;99.90;;;;;;5018982;28;20966;-55
2020/12/13 03:29:30;;;;;;;11.17;5.90;;;2.90;99.90;;;;;;5026820;28;20280;-55
2020/12/13 03:31:55;;;;;;;11.77;4.90;;;2.90;99.90;;;;;;5026350;28;20183;-56
2020/12/13 03:34:21;;;;;;;11.07;6.27;;;2.90;99.90;;;;;;5024631;28;20695;-56
2020/12/13 03:36:47;;;;;;;12.83;6.33;;;2.90;99.90;;;;;;5029479;28;20410;-55
2020/12/13 03:39:13;;;;;;;15.90;6.03;;;2.90;99.90;;;;;;5030056;28;20204;-56
2020/12/13 03:41:39;;;;;;;9.83;4.97;;;2.90;99.90;;;;;;5036643;28;20441;-55
2020/12/13 03:44:05;;;;;;;9.97;5.43;;;2.90;99.90;;;;;;5029940;28;20469;-56
2020/12/13 03:46:30;;;;;;;9.40;5.10;;;2.90;99.90;;;;;;5032538;28;20511;-55
2020/12/13 03:48:56;;;;;;;13.27;6.80;;;3.00;99.90;;;;;;5011991;28;20323;-55
2020/12/13 03:51:22;;;;;;;10.67;6.37;;;2.90;99.90;;;;;;5017276;28;20200;-56
2020/12/13 03:53:48;;;;;;;15.80;6.20;;;3.00;99.90;;;;;;5020436;28;20203;-56
2020/12/13 03:56:13;;;;;;;14.97;6.77;;;3.00;99.90;;;;;;5016788;28;20447;-55
2020/12/13 03:58:39;;;;;;;13.47;7.90;;;3.00;99.90;;;;;;5026612;28;20199;-54
2020/12/13 04:01:05;;;;;;;11.30;6.50;;;3.10;99.90;;;;;;5027861;28;20220;-54
2020/12/13 04:03:30;;;;;;;12.57;6.67;;;3.10;99.90;;;;;;5024773;28;20192;-54
2020/12/13 04:05:56;;;;;;;11.33;6.13;;;3.10;99.90;;;;;;5013896;28;20188;-56
2020/12/13 04:08:22;;;;;;;11.50;6.60;;;3.10;99.90;;;;;;5030793;28;20231;-55
2020/12/13 04:10:47;;;;;;;12.50;7.13;;;3.10;99.90;;;;;;5018693;28;20461;-55
2020/12/13 04:13:13;;;;;;;9.60;6.63;;;3.20;99.90;;;;;;5024984;28;20238;-56
2020/12/13 04:15:38;;;;;;;9.50;6.00;;;3.20;99.90;;;;;;5029664;28;20248;-56
2020/12/13 04:18:04;;;;;;;13.27;6.30;;;3.20;99.90;;;;;;5027438;28;20286;-55
2020/12/13 04:20:30;;;;;;;11.40;6.20;;;3.20;99.90;;;;;;5021788;28;20587;-54
2020/12/13 04:22:56;;;;;;;12.07;6.57;;;3.20;99.90;;;;;;5026906;28;20187;-54
2020/12/13 04:25:21;;;;;;;12.60;6.43;;;3.20;99.90;;;;;;5023791;28;20184;-55
2020/12/13 04:27:47;;;;;;;11.83;6.30;;;3.30;99.90;;;;;;5025755;28;20170;-55
2020/12/13 04:30:13;;;;;;;12.97;6.50;;;3.30;99.90;;;;;;5029815;28;20195;-54
2020/12/13 04:32:39;;;;;;;16.27;6.77;;;3.30;99.90;;;;;;5010979;28;20189;-56
2020/12/13 04:35:07;;;;;;;11.60;6.27;;;3.30;99.90;;;;;;5025276;28;20807;-55
2020/12/13 04:37:33;;;;;;;11.03;6.47;;;3.30;99.90;;;;;;5032542;28;20430;-56
2020/12/13 04:39:58;;;;;;;10.73;6.50;;;3.30;99.90;;;;;;5027641;28;20864;-55
2020/12/13 04:42:24;;;;;;;9.77;6.30;;;3.30;99.90;;;;;;5035496;28;20264;-55
2020/12/13 04:44:50;;;;;;;10.67;6.73;;;3.30;99.90;;;;;;5024214;28;20211;-55
2020/12/13 04:47:18;;;;;;;10.00;6.07;;;3.30;99.90;;;;;;5025468;28;20195;-56
2020/12/13 04:49:50;;;;;;;10.50;6.00;;;3.30;99.90;;;;;;5027721;28;20450;-56
2020/12/13 04:52:17;;;;;;;9.63;5.83;;;3.30;99.90;;;;;;5018479;28;20432;-56
2020/12/13 04:54:52;;;;;;;9.03;5.20;;;3.30;99.90;;;;;;5019236;28;20786;-55
2020/12/13 04:57:19;;;;;;;9.33;5.70;;;3.30;99.90;;;;;;5028416;28;20512;-55
2020/12/13 04:59:47;;;;;;;10.67;5.83;;;3.30;99.90;;;;;;5029018;28;20474;-57
2020/12/13 05:02:14;;;;;;;8.97;5.73;;;3.30;99.90;;;;;;5022549;28;21048;-56
2020/12/13 05:04:40;;;;;;;9.80;6.30;;;3.40;99.90;;;;;;5020507;28;20878;-57
2020/12/13 05:07:07;;;;;;;11.13;7.10;;;3.40;99.90;;;;;;5026457;28;20434;-55
2020/12/13 05:09:33;;;;;;;12.17;7.37;;;3.40;99.90;;;;;;5026251;28;20535;-55
2020/12/13 05:11:59;;;;;;;14.07;8.50;;;3.40;99.90;;;;;;5027284;28;20913;-55
2020/12/13 05:14:25;;;;;;;12.20;7.70;;;3.40;99.90;;;;;;5025874;28;20525;-56
2020/12/13 05:17:05;;;;;;;13.07;7.53;;;3.40;99.90;;;;;;5024535;28;20448;-56
2020/12/13 05:19:31;;;;;;;10.77;7.17;;;3.30;99.90;;;;;;5005946;28;20466;-54
2020/12/13 05:21:59;;;;;;;13.03;7.33;;;3.30;99.90;;;;;;5012782;28;20437;-55
2020/12/13 05:24:25;;;;;;;9.80;5.73;;;3.40;99.90;;;;;;5027248;28;20517;-54
2020/12/13 05:27:03;;;;;;;10.43;6.20;;;3.30;99.90;;;;;;5027015;28;20500;-55
2020/12/13 05:29:31;;;;;;;11.70;7.00;;;3.30;99.90;;;;;;5028329;28;20943;-56
2020/12/13 05:32:15;;;;;;;11.00;7.00;;;3.30;99.90;;;;;;5024701;28;20422;-55
2020/12/13 05:34:44;;;;;;;14.87;7.63;;;3.40;99.90;;;;;;5026666;28;20438;-55
2020/12/13 05:37:14;;;;;;;11.10;7.47;;;3.40;99.90;;;;;;5029393;28;20895;-56
2020/12/13 05:39:42;;;;;;;9.80;6.17;;;3.40;99.90;;;;;;5026448;28;20470;-56
2020/12/13 05:42:11;;;;;;;10.87;7.03;;;3.40;99.90;;;;;;5024667;28;20827;-57
2020/12/13 05:48:14;;;;;;;9.63;5.63;;;3.40;99.90;;;;;;5013188;28;21233;-55
2020/12/13 05:53:22;;;;;;;8.83;5.20;;;3.40;99.90;;;;;;4983237;28;20427;-54
2020/12/13 05:55:48;;;;;;;10.37;5.37;;;3.40;99.90;;;;;;4984831;28;21036;-54
2020/12/13 05:58:14;;;;;;;8.80;5.50;;;3.40;99.90;;;;;;5005048;28;20454;-53
2020/12/13 06:00:41;;;;;;;7.77;5.13;;;3.40;99.90;;;;;;5025636;28;20474;-55
2020/12/13 06:03:10;;;;;;;8.63;5.00;;;3.30;99.90;;;;;;5018280;28;20532;-56
2020/12/13 06:05:39;;;;;;;8.20;5.03;;;3.30;99.90;;;;;;5026383;28;20430;-55
2020/12/13 06:08:05;;;;;;;7.50;4.70;;;3.40;99.90;;;;;;5026628;28;20474;-55
2020/12/13 06:10:35;;;;;;;8.23;5.33;;;3.30;99.90;;;;;;5024922;28;20814;-55
2020/12/13 06:13:02;;;;;;;5.50;4.33;;;3.30;99.90;;;;;;5026177;28;20272;-56
2020/12/13 06:15:30;;;;;;;7.00;5.13;;;3.30;99.90;;;;;;5027257;28;20439;-56
2020/12/13 06:17:57;;;;;;;8.00;4.20;;;3.30;99.90;;;;;;5021169;28;20454;-56
2020/12/13 06:20:23;;;;;;;7.73;5.30;;;3.30;99.90;;;;;;5023112;28;20516;-54
2020/12/13 06:22:53;;;;;;;8.43;5.00;;;3.20;99.90;;;;;;5030259;28;20415;-56
2020/12/13 06:25:20;;;;;;;8.60;4.97;;;3.20;99.90;;;;;;5024714;28;20509;-54
2020/12/13 06:27:49;;;;;;;9.67;5.03;;;3.20;99.90;;;;;;5023905;28;20442;-55
2020/12/13 06:30:16;;;;;;;8.20;5.30;;;3.20;99.90;;;;;;5031251;28;20453;-55
2020/12/13 06:32:43;;;;;;;8.97;5.30;;;3.20;99.90;;;;;;5024954;28;20542;-54
2020/12/13 06:35:09;;;;;;;8.93;5.50;;;3.20;99.90;;;;;;5022853;28;20495;-55
2020/12/13 06:37:37;;;;;;;14.60;6.23;;;3.20;99.90;;;;;;5019718;28;20981;-56
2020/12/13 06:40:12;;;;;;;8.20;5.50;;;3.10;99.90;;;;;;5029321;28;20465;-55
2020/12/13 06:42:41;;;;;;;19.67;6.13;;;3.20;99.90;;;;;;5015319;28;20426;-55
2020/12/13 06:45:12;;;;;;;8.33;5.60;;;3.10;99.90;;;;;;5019679;28;20431;-55
2020/12/13 06:47:39;;;;;;;10.80;5.73;;;3.10;99.90;;;;;;5026260;28;20815;-56
2020/12/13 06:50:10;;;;;;;8.93;5.83;;;3.10;99.90;;;;;;5025921;28;20442;-55
2020/12/13 06:52:36;;;;;;;13.57;6.50;;;3.10;99.90;;;;;;5025142;28;20887;-58
2020/12/13 06:55:06;;;;;;;8.97;5.87;;;3.10;99.90;;;;;;5023304;28;20441;-54
2020/12/13 06:57:35;;;;;;;9.30;5.27;;;3.20;99.90;;;;;;5023593;28;20438;-58
2020/12/13 07:00:09;;;;;;;8.87;5.40;;;3.20;99.90;;;;;;5023357;28;20532;-55
2020/12/13 07:02:48;;;;;;;11.43;6.10;;;3.20;99.90;;;;;;5022622;28;20452;-58
2020/12/13 07:05:14;;;;;;;6.83;4.80;;;3.20;99.90;;;;;;5022516;28;20422;-58
2020/12/13 07:07:40;;;;;;;10.57;6.20;;;3.20;99.90;;;;;;5012136;28;20477;-57
2020/12/13 07:10:08;;;;;;;10.07;4.63;;;3.20;99.90;;;;;;5019946;28;20442;-57
2020/12/13 07:12:35;;;;;;;8.20;5.40;;;3.20;99.90;;;;;;5021583;28;20521;-57
2020/12/13 07:15:10;;;;;;;10.03;5.70;;;3.20;99.90;;;;;;5015460;28;20442;-60
2020/12/13 07:17:37;;;;;;;8.83;5.83;;;3.20;99.90;;;;;;5005426;28;20438;-58
2020/12/13 07:20:03;;;;;;;10.67;5.53;;;3.30;99.90;;;;;;5018437;28;20476;-58
2020/12/13 07:22:33;;;;;;;7.93;4.90;;;3.30;99.90;;;;;;5018140;28;20438;-57
2020/12/13 07:24:59;;;;;;;9.27;5.53;;;3.30;99.90;;;;;;5015729;28;20435;-56
2020/12/13 07:27:27;;;;;;;9.00;5.40;;;3.30;99.90;;;;;;5003433;28;20448;-57
2020/12/13 07:29:55;;;;;;;6.80;4.40;;;3.30;99.90;;;;;;5018447;28;20450;-58
2020/12/13 07:32:22;;;;;;;8.80;5.13;;;3.30;99.90;;;;;;5020868;28;20439;-56
2020/12/13 07:34:49;;;;;;;8.30;5.50;;;3.30;99.90;;;;;;5019266;28;20436;-56
2020/12/13 07:37:15;;;;;;;10.10;5.50;;;3.30;99.90;;;;;;5018010;28;20556;-57
2020/12/13 07:39:42;;;;;;;7.53;4.97;;;3.40;99.90;;;;;;5021666;28;20549;-56
2020/12/13 07:42:08;;;;;;;9.10;4.73;;;3.40;99.90;;;;;;5028120;28;20572;-56
2020/12/13 07:44:34;;;;;;;10.83;5.50;;;3.40;99.90;;;;;;5028807;28;20414;-57
2020/12/13 07:47:00;;;;;;;11.40;6.43;;;3.40;99.90;;;;;;5029907;28;20445;-57
2020/12/13 07:49:26;;;;;;;10.00;5.80;;;3.40;99.90;;;;;;5015520;28;21356;-59
2020/12/13 07:51:53;;;;;;;10.30;5.97;;;3.40;99.90;;;;;;5018464;28;20175;-57
2020/12/13 07:54:28;;;;;;;10.33;6.10;;;3.30;99.90;;;;;;5021729;28;20206;-57
2020/12/13 07:57:11;;;;;;;8.97;5.90;;;3.30;99.90;;;;;;5025938;28;20418;-57
2020/12/13 07:59:37;;;;;;;10.20;6.47;;;3.30;99.90;;;;;;5027159;28;20529;-56
2020/12/13 08:02:03;;;;;;;10.50;6.50;;;3.30;99.90;;;;;;5025582;28;20445;-53
2020/12/13 08:04:30;;;;;;;10.13;5.80;;;3.30;99.90;;;;;;5016133;28;20960;-54
2020/12/13 08:07:03;;;;;;;12.83;6.80;;;3.30;99.90;;;;;;5016027;28;20957;-57
2020/12/13 08:09:29;;;;;;;10.07;6.13;;;3.30;99.90;;;;;;5019073;28;20491;-57
2020/12/13 08:11:55;;;;;;;11.43;6.70;;;3.30;99.90;;;;;;5022504;28;20967;-57
2020/12/13 08:14:23;;;;;;;9.67;5.63;;;3.30;99.90;;;;;;5025670;28;20187;-57
2020/12/13 08:16:50;;;;;;;10.13;6.17;;;3.30;99.90;;;;;;5030157;28;20211;-56
2020/12/13 08:19:18;;;;;;;9.30;5.70;;;3.30;99.90;;;;;;5016092;28;20966;-57
2020/12/13 08:22:02;;;;;;;12.33;6.00;;;3.30;99.90;;;;;;5020417;28;20515;-54
2020/12/13 08:24:29;;;;;;;10.90;6.17;;;3.30;99.90;;;;;;5028858;28;20438;-57
2020/12/13 08:26:58;;;;;;;10.40;5.50;;;3.30;99.90;;;;;;5022429;28;20436;-54
2020/12/13 08:29:25;;;;;;;11.00;5.93;;;3.30;99.90;;;;;;5019969;28;20899;-57
2020/12/13 08:31:51;;;;;;;9.17;5.57;;;3.40;99.90;;;;;;5031837;28;20441;-55
2020/12/13 08:34:31;;;;;;;8.70;5.60;;;3.30;99.90;;;;;;5021269;28;20425;-53
2020/12/13 08:36:59;;;;;;;10.90;6.13;;;3.30;99.90;;;;;;5017769;28;20430;-55
2020/12/13 08:39:31;;;;;;;8.03;5.30;;;3.30;99.90;;;;;;5018903;28;20971;-56
2020/12/13 08:41:59;;;;;;;11.60;5.20;;;3.30;99.90;;;;;;5026322;28;20963;-52
2020/12/13 08:44:24;;;;;;;9.00;5.37;;;3.40;99.90;;;;;;5022200;28;20468;-58
2020/12/13 08:46:50;;;;;;;9.13;5.67;;;3.40;99.90;;;;;;5026484;28;20481;-56
2020/12/13 08:49:27;;;;;;;10.67;5.87;;;3.40;99.90;;;;;;5015780;28;20192;-56
2020/12/13 08:51:53;;;;;;;12.77;7.67;;;3.40;99.90;;;;;;5016386;28;20452;-54
2020/12/13 08:54:19;;;;;;;14.27;7.20;;;3.40;99.90;;;;;;5017730;28;20426;-56
2020/12/13 08:56:50;;;;;;;11.57;6.90;;;3.40;99.90;;;;;;5035446;28;20526;-55
2020/12/13 08:59:20;;;;;;;19.57;11.00;;;3.40;99.90;;;;;;5025709;28;20200;-57
2020/12/13 09:02:02;;;;;;;14.13;8.83;;;3.40;99.90;;;;;;5025628;28;20478;-55
2020/12/13 09:04:30;;;;;;;11.57;7.20;;;3.40;99.90;;;;;;5025450;28;20623;-56
2020/12/13 09:06:58;;;;;;;12.03;7.57;;;3.40;99.90;;;;;;5027323;28;20517;-56
2020/12/13 09:09:33;;;;;;;12.40;7.40;;;3.40;99.90;;;;;;5018246;28;20484;-56
2020/12/13 09:12:17;;;;;;;16.37;8.13;;;3.40;99.90;;;;;;5026946;28;20468;-55
2020/12/13 09:14:43;;;;;;;34.67;15.77;;;3.50;99.90;;;;;;5027327;28;20451;-58
2020/12/13 09:17:08;;;;;;;27.30;13.50;;;3.50;99.90;;;;;;5026319;28;20443;-56
2020/12/13 09:19:34;;;;;;;47.77;17.57;;;3.50;99.90;;;;;;5021705;28;20620;-55
2020/12/13 09:22:01;;;;;;;28.87;11.50;;;3.50;99.90;;;;;;5024687;28;20673;-56
2020/12/13 09:24:31;;;;;;;14.03;7.90;;;3.60;99.90;;;;;;5027237;28;20188;-58
2020/12/13 09:27:01;;;;;;;13.40;7.73;;;3.60;99.90;;;;;;5027193;28;20459;-55
2020/12/13 09:29:28;;;;;;;9.50;6.33;;;3.60;99.90;;;;;;5026909;28;20474;-56
2020/12/13 09:31:53;;;;;;;10.90;6.57;;;3.60;99.90;;;;;;5016427;28;20511;-54
2020/12/13 09:34:20;;;;;;;9.70;6.13;;;3.70;99.90;;;;;;5026422;28;20512;-57
2020/12/13 09:36:46;;;;;;;8.83;5.80;;;3.70;99.90;;;;;;5027712;28;20184;-55
2020/12/13 09:39:12;;;;;;;10.20;6.63;;;3.80;99.90;;;;;;5020897;28;20446;-54
2020/12/13 09:41:37;;;;;;;9.17;6.00;;;3.80;99.90;;;;;;5018226;28;20564;-54
2020/12/13 09:44:03;;;;;;;9.63;5.97;;;3.80;99.90;;;;;;4992316;28;20184;-56
2020/12/13 09:46:29;;;;;;;10.03;5.10;;;3.90;99.90;;;;;;5013787;28;20211;-54
2020/12/13 09:48:55;;;;;;;9.50;6.40;;;3.90;99.90;;;;;;5023926;28;20256;-55
2020/12/13 09:51:21;;;;;;;7.97;6.00;;;3.90;99.90;;;;;;5027321;28;20435;-53
2020/12/13 09:53:47;;;;;;;8.90;6.50;;;4.00;99.90;;;;;;5019424;28;20195;-54
2020/12/13 09:56:18;;;;;;;8.87;6.77;;;4.00;99.90;;;;;;5025028;28;20529;-53
2020/12/13 09:58:44;;;;;;;11.10;6.53;;;4.10;99.90;;;;;;4977808;28;20211;-55
2020/12/13 10:01:11;;;;;;;12.63;7.00;;;4.10;99.90;;;;;;5009016;28;20467;-53
2020/12/13 10:03:39;;;;;;;11.07;6.50;;;4.10;99.90;;;;;;4987822;28;20485;-54
2020/12/13 10:11:30;;;;;;;14.57;9.10;;;4.20;99.90;;;;;;5024205;28;20430;-56
2020/12/13 10:13:56;;;;;;;12.93;8.47;;;4.20;99.90;;;;;;5010835;28;20532;-54
2020/12/13 10:16:22;;;;;;;24.40;12.90;;;4.20;99.90;;;;;;5001261;28;20443;-54
2020/12/13 10:18:48;;;;;;;32.67;17.83;;;4.20;99.90;;;;;;4990830;28;20454;-54
2020/12/13 10:21:23;;;;;;;26.70;14.90;;;4.20;99.90;;;;;;5009322;28;20213;-57
2020/12/13 10:23:48;;;;;;;21.27;11.17;;;4.20;99.90;;;;;;5019319;28;20410;-56
2020/12/13 10:26:14;;;;;;;20.30;11.47;;;4.20;99.90;;;;;;5036817;28;21982;-55
2020/12/13 10:28:40;;;;;;;23.47;13.07;;;4.20;99.90;;;;;;5010455;28;20204;-53
2020/12/13 10:31:07;;;;;;;26.50;13.00;;;4.20;99.90;;;;;;5006787;28;20188;-53
2020/12/13 10:33:39;;;;;;;27.70;13.83;;;4.20;99.90;;;;;;5023300;28;20230;-53
2020/12/13 10:36:06;;;;;;;26.20;15.10;;;4.20;99.90;;;;;;5027730;28;20954;-53
2020/12/13 10:38:32;;;;;;;25.20;14.33;;;4.10;99.90;;;;;;5008451;28;20458;-56
2020/12/13 10:40:57;;;;;;;25.17;14.67;;;4.10;99.90;;;;;;5009438;28;20513;-57
2020/12/13 10:43:23;;;;;;;27.57;14.07;;;4.10;99.90;;;;;;5006513;28;20220;-55
2020/12/13 10:45:49;;;;;;;25.50;13.83;;;4.10;99.90;;;;;;5024646;28;20211;-56
2020/12/13 10:48:14;;;;;;;26.20;13.37;;;4.10;99.90;;;;;;5018563;28;20465;-58
2020/12/13 10:50:41;;;;;;;23.83;12.77;;;4.10;99.90;;;;;;4995919;28;20194;-56
2020/12/13 10:53:07;;;;;;;22.97;13.80;;;4.20;99.90;;;;;;4989125;28;20196;-56
2020/12/13 10:55:33;;;;;;;22.50;12.23;;;4.20;99.90;;;;;;5013361;28;20869;-56
2020/12/13 10:57:59;;;;;;;18.63;11.73;;;4.10;99.90;;;;;;5023126;28;20229;-55
2020/12/13 11:00:24;;;;;;;21.63;12.03;;;4.10;99.90;;;;;;5021882;28;20329;-54
2020/12/13 11:02:51;;;;;;;25.10;13.50;;;4.10;99.90;;;;;;5024072;28;20217;-55
2020/12/13 11:05:17;;;;;;;22.43;13.20;;;4.10;99.90;;;;;;5022906;28;20187;-56
2020/12/13 11:07:43;;;;;;;22.13;12.70;;;4.10;99.90;;;;;;5021712;28;20443;-55
2020/12/13 11:10:09;;;;;;;27.70;13.17;;;4.10;99.90;;;;;;5022555;28;20506;-57
2020/12/13 11:12:35;;;;;;;22.90;13.03;;;4.10;99.90;;;;;;5018244;28;20527;-56
2020/12/13 11:15:01;;;;;;;24.47;12.90;;;4.20;99.90;;;;;;5022556;28;20446;-57
2020/12/13 11:17:26;;;;;;;27.10;15.20;;;4.20;99.90;;;;;;5004731;28;20207;-56
2020/12/13 11:19:52;;;;;;;25.50;13.53;;;4.30;99.90;;;;;;5006838;28;20430;-57
2020/12/13 11:22:18;;;;;;;26.47;13.90;;;4.40;99.90;;;;;;5030526;28;20188;-56
2020/12/13 11:24:44;;;;;;;18.77;10.70;;;4.40;99.90;;;;;;5026760;28;20665;-57
2020/12/13 11:27:10;;;;;;;8.43;5.33;;;4.50;99.90;;;;;;5020041;28;20562;-55
2020/12/13 11:29:36;;;;;;;4.80;3.70;;;4.60;99.90;;;;;;5024778;28;20450;-55
2020/12/13 11:32:02;;;;;;;6.30;3.90;;;4.60;99.90;;;;;;5015519;28;20183;-57
2020/12/13 11:34:28;;;;;;;6.10;4.30;;;4.70;99.90;;;;;;5003388;28;20438;-56
2020/12/13 11:36:54;;;;;;;5.53;4.23;;;4.70;99.90;;;;;;5021688;28;20452;-54
2020/12/13 11:39:20;;;;;;;7.73;4.57;;;4.70;99.90;;;;;;5021395;28;20216;-57
2020/12/13 11:41:46;;;;;;;5.70;4.00;;;4.70;99.90;;;;;;5019548;28;20691;-56
2020/12/13 11:44:11;;;;;;;7.50;4.83;;;4.80;99.90;;;;;;5017963;28;20184;-59
2020/12/13 11:46:37;;;;;;;5.33;4.23;;;4.80;99.90;;;;;;5012886;28;20183;-56
2020/12/13 11:49:03;;;;;;;5.10;4.37;;;4.80;99.90;;;;;;5020353;28;21023;-56
2020/12/13 11:51:28;;;;;;;5.97;4.43;;;4.80;99.90;;;;;;5023050;28;20188;-56
2020/12/13 11:53:54;;;;;;;4.90;3.80;;;4.80;99.90;;;;;;5022121;28;20198;-55
2020/12/13 11:56:21;;;;;;;5.67;4.37;;;4.90;99.90;;;;;;5018405;28;20210;-55
2020/12/13 11:58:47;;;;;;;6.50;4.60;;;4.90;99.90;;;;;;5001099;28;20282;-54
2020/12/13 12:01:13;;;;;;;7.63;4.73;;;4.90;99.90;;;;;;5023029;28;20482;-56
2020/12/13 12:03:39;;;;;;;11.77;6.17;;;4.80;99.90;;;;;;5012368;28;20461;-53
2020/12/13 12:06:08;;;;;;;8.67;4.80;;;4.80;99.90;;;;;;5016553;28;20196;-54
2020/12/13 12:08:34;;;;;;;9.37;5.97;;;4.80;99.90;;;;;;5018551;28;20504;-55
2020/12/13 12:11:00;;;;;;;11.93;6.23;;;4.80;99.90;;;;;;5012127;28;20492;-56
2020/12/13 12:13:25;;;;;;;9.30;5.20;;;4.80;99.90;;;;;;5015463;28;20302;-56
2020/12/13 12:15:51;;;;;;;7.30;4.83;;;4.80;99.90;;;;;;4997056;28;20196;-55
2020/12/13 12:18:17;;;;;;;4.77;3.40;;;4.70;99.90;;;;;;5019993;28;20722;-55
2020/12/13 12:20:43;;;;;;;7.20;4.07;;;4.70;99.90;;;;;;4995571;28;20223;-56
2020/12/13 12:23:09;;;;;;;5.10;4.07;;;4.70;99.90;;;;;;5020028;28;20183;-55
2020/12/13 12:25:36;;;;;;;4.63;3.90;;;4.70;99.90;;;;;;5019779;28;20438;-53
2020/12/13 12:28:02;;;;;;;6.30;4.43;;;4.60;99.90;;;;;;5028398;28;20204;-54
2020/12/13 12:30:28;;;;;;;9.57;5.83;;;4.70;99.90;;;;;;5018518;28;20504;-53
2020/12/13 12:32:54;;;;;;;7.00;4.73;;;4.70;99.90;;;;;;5023032;28;20442;-54
2020/12/13 12:35:20;;;;;;;8.03;5.50;;;4.60;99.90;;;;;;5021502;28;20672;-53
2020/12/13 12:37:46;;;;;;;9.67;6.10;;;4.60;99.90;;;;;;5006231;28;20198;-52
2020/12/13 12:40:12;;;;;;;13.07;5.17;;;4.70;99.90;;;;;;5026992;28;20221;-56
2020/12/13 12:42:37;;;;;;;7.40;4.33;;;4.60;99.90;;;;;;5022189;28;21242;-55
2020/12/13 12:45:03;;;;;;;9.10;4.90;;;4.60;99.90;;;;;;5017671;28;20194;-55
2020/12/13 12:47:29;;;;;;;4.30;3.70;;;4.60;99.90;;;;;;5022637;28;21954;-55
2020/12/13 12:49:55;;;;;;;7.30;4.50;;;4.60;99.90;;;;;;5018238;28;20215;-56
2020/12/13 12:52:20;;;;;;;7.70;3.77;;;4.60;99.90;;;;;;5017106;28;20267;-53
2020/12/13 12:54:46;;;;;;;6.20;3.30;;;4.60;99.90;;;;;;5024757;28;21751;-54
2020/12/13 12:57:12;;;;;;;6.53;3.80;;;4.60;99.90;;;;;;5022939;28;20968;-56
2020/12/13 13:02:13;;;;;;;8.93;4.63;;;4.50;99.90;;;;;;5013853;28;20436;-55
2020/12/13 13:04:44;;;;;;;6.30;4.10;;;4.50;99.90;;;;;;5001171;28;20438;-53